Time;durP1;ratioP1;P1;durP2;ratioP2;P2;SDS_P1;SDS_P2;PMS_P1;PMS_P2;Temp;Humidity;BMP_temperature;BMP_pressure;BME280_temperature;BME280_humidity;BME280_pressure;Samples;Min_cycle;Max_cycle;Signal;HPM_P1;HPM_P2
2021/01/29 00:02:22;;;;;;;7.18;1.80;;;21.50;43.60;;;;;;4809596;29;20501;-73
2021/01/29 00:04:48;;;;;;;4.35;1.52;;;21.50;43.50;;;;;;4825625;29;20042;-74
2021/01/29 00:07:13;;;;;;;2.05;0.80;;;21.50;43.70;;;;;;4825656;29;20087;-73
2021/01/29 00:09:39;;;;;;;3.97;0.98;;;21.50;43.60;;;;;;4825693;29;20081;-75
2021/01/29 00:12:05;;;;;;;4.40;1.33;;;21.50;43.70;;;;;;4825569;29;20040;-75
2021/01/29 00:14:31;;;;;;;3.58;1.10;;;21.50;43.70;;;;;;4809417;29;20029;-73
2021/01/29 00:16:56;;;;;;;3.13;0.90;;;21.50;44.40;;;;;;4809035;29;20043;-73
2021/01/29 00:19:22;;;;;;;4.22;1.13;;;21.50;43.70;;;;;;4827361;29;20029;-73
2021/01/29 00:21:47;;;;;;;4.82;1.15;;;21.40;43.80;;;;;;4814608;29;20078;-73
2021/01/29 00:24:13;;;;;;;2.90;1.00;;;21.40;43.80;;;;;;4825279;29;20170;-73
2021/01/29 00:26:39;;;;;;;4.10;1.02;;;21.40;43.80;;;;;;4809802;29;20075;-73
2021/01/29 00:29:04;;;;;;;6.80;1.25;;;21.40;43.80;;;;;;4809356;29;20596;-73
2021/01/29 00:31:30;;;;;;;2.83;0.93;;;21.40;43.80;;;;;;4824296;29;20042;-74
2021/01/29 00:33:55;;;;;;;4.70;1.40;;;21.40;44.00;;;;;;4818433;29;20164;-74
2021/01/29 00:36:21;;;;;;;3.63;0.90;;;21.40;44.50;;;;;;4824095;29;20027;-73
2021/01/29 00:38:46;;;;;;;3.50;0.90;;;21.40;43.90;;;;;;4786551;29;20530;-76
2021/01/29 00:41:12;;;;;;;2.85;0.85;;;21.40;44.00;;;;;;4805582;29;20051;-74
2021/01/29 00:43:39;;;;;;;0.95;0.52;;;21.40;44.00;;;;;;4816439;29;20035;-74
2021/01/29 00:46:05;;;;;;;1.92;0.50;;;21.40;44.70;;;;;;4824119;29;20045;-74
2021/01/29 00:48:31;;;;;;;1.60;0.50;;;21.40;44.00;;;;;;4790058;29;20030;-74
2021/01/29 00:50:57;;;;;;;0.77;0.47;;;21.40;44.00;;;;;;4808323;29;20042;-74
2021/01/29 00:53:22;;;;;;;0.10;0.10;;;21.40;44.00;;;;;;4809614;29;20026;-74
2021/01/29 00:59:16;;;;;;;1.23;0.25;;;21.40;44.10;;;;;;4825984;29;20037;-74
2021/01/29 01:01:41;;;;;;;0.73;0.63;;;21.40;44.10;;;;;;4804555;29;20051;-75
2021/01/29 01:04:07;;;;;;;1.90;0.60;;;21.30;44.00;;;;;;4808864;29;20042;-74
2021/01/29 01:06:33;;;;;;;0.52;0.50;;;21.40;44.10;;;;;;4825655;29;20038;-74
2021/01/29 01:08:58;;;;;;;2.45;0.63;;;21.30;44.00;;;;;;4778968;29;20143;-75
2021/01/29 01:11:24;;;;;;;0.57;0.57;;;21.40;44.00;;;;;;4807297;29;20503;-75
2021/01/29 01:13:49;;;;;;;1.00;0.50;;;21.30;44.00;;;;;;4825000;29;20037;-74
2021/01/29 01:16:15;;;;;;;3.25;0.57;;;21.30;44.10;;;;;;4825384;29;20088;-75
2021/01/29 01:18:40;;;;;;;0.77;0.30;;;21.40;44.00;;;;;;4825275;29;20501;-75
2021/01/29 01:21:06;;;;;;;0.95;0.50;;;21.30;44.00;;;;;;4808119;29;20054;-75
2021/01/29 01:23:32;;;;;;;1.00;0.50;;;21.30;44.10;;;;;;4808338;29;20156;-74
2021/01/29 01:25:57;;;;;;;1.55;0.20;;;21.30;44.70;;;;;;4808859;29;20054;-74
2021/01/29 01:28:23;;;;;;;1.42;0.50;;;21.30;44.10;;;;;;4824876;29;20030;-74
2021/01/29 01:30:48;;;;;;;0.43;0.43;;;21.30;44.10;;;;;;4824104;29;20042;-75
2021/01/29 01:33:14;;;;;;;0.85;0.45;;;21.30;44.10;;;;;;4824906;29;20035;-74
2021/01/29 01:35:39;;;;;;;1.27;0.60;;;21.30;44.10;;;;;;4808742;29;20037;-74
2021/01/29 01:38:05;;;;;;;0.90;0.52;;;21.30;44.20;;;;;;4824786;29;20039;-74
2021/01/29 01:40:36;;;;;;;0.88;0.50;;;21.30;44.10;;;;;;4807688;29;20074;-74
2021/01/29 01:43:02;;;;;;;0.57;0.50;;;21.30;44.20;;;;;;4791969;29;20038;-75
2021/01/29 01:45:28;;;;;;;0.52;0.43;;;21.30;44.20;;;;;;4793415;29;20054;-74
2021/01/29 01:48:05;;;;;;;0.40;0.40;;;21.30;44.20;;;;;;4827745;29;20041;-75
2021/01/29 01:50:33;;;;;;;0.50;0.50;;;21.30;44.90;;;;;;4824541;29;20066;-74
2021/01/29 01:53:16;;;;;;;0.60;0.60;;;21.30;44.90;;;;;;4792612;29;20050;-74
2021/01/29 01:55:42;;;;;;;0.30;0.30;;;21.30;44.30;;;;;;4778536;29;20103;-75
2021/01/29 01:58:07;;;;;;;0.30;0.30;;;21.20;44.20;;;;;;4793020;29;20480;-74
2021/01/29 02:00:33;;;;;;;1.35;0.57;;;21.20;44.30;;;;;;4807541;29;20109;-74
2021/01/29 02:03:04;;;;;;;0.32;0.32;;;21.20;44.40;;;;;;4792533;29;20042;-74
2021/01/29 02:05:32;;;;;;;0.82;0.32;;;21.20;44.40;;;;;;4793184;29;20515;-73
2021/01/29 02:07:59;;;;;;;1.02;0.50;;;21.20;44.40;;;;;;4807718;29;20065;-74
2021/01/29 02:10:29;;;;;;;0.30;0.30;;;21.20;44.40;;;;;;4792443;29;20062;-74
2021/01/29 02:12:54;;;;;;;0.63;0.20;;;21.20;44.40;;;;;;4806833;29;20027;-74
2021/01/29 02:15:34;;;;;;;0.57;0.45;;;21.20;44.40;;;;;;4807959;29;20127;-74
2021/01/29 02:18:25;;;;;;;0.98;0.30;;;21.10;44.40;;;;;;4810005;29;21551;-74
2021/01/29 02:20:56;;;;;;;0.90;0.40;;;21.10;44.40;;;;;;4826979;29;20055;-75
2021/01/29 02:24:04;;;;;;;0.60;0.38;;;21.10;44.50;;;;;;4823130;29;20034;-75
2021/01/29 02:26:43;;;;;;;3.30;0.30;;;21.10;44.40;;;;;;4809300;29;20043;-75
2021/01/29 02:29:36;;;;;;;0.22;0.20;;;21.10;44.50;;;;;;4785320;29;20042;-74
2021/01/29 02:32:05;;;;;;;0.40;0.40;;;21.10;44.50;;;;;;4823422;29;20041;-74
2021/01/29 02:34:58;;;;;;;0.80;0.20;;;21.10;44.40;;;;;;4821929;29;20116;-74
2021/01/29 02:37:45;;;;;;;0.32;0.32;;;21.10;44.30;;;;;;4822132;29;20499;-74
2021/01/29 02:40:38;;;;;;;0.20;0.20;;;21.10;44.40;;;;;;4823903;29;20022;-74
2021/01/29 02:43:31;;;;;;;0.68;0.17;;;21.10;44.50;;;;;;4823008;29;20105;-75
2021/01/29 02:46:10;;;;;;;2.25;0.40;;;21.10;44.70;;;;;;4821413;29;20038;-75
2021/01/29 02:48:44;;;;;;;4.07;0.28;;;21.10;44.70;;;;;;4807055;29;20019;-74
2021/01/29 02:51:15;;;;;;;0.20;0.20;;;21.10;44.70;;;;;;4808049;29;20530;-74
2021/01/29 02:53:42;;;;;;;1.13;0.20;;;21.10;45.10;;;;;;4806855;29;20062;-75
2021/01/29 02:56:29;;;;;;;0.40;0.30;;;21.10;45.30;;;;;;4791477;29;20068;-74
2021/01/29 02:59:13;;;;;;;0.43;0.15;;;21.00;45.40;;;;;;4821769;29;20064;-75
2021/01/29 03:01:50;;;;;;;0.40;0.20;;;21.00;45.30;;;;;;4821729;29;20066;-75
2021/01/29 03:04:18;;;;;;;2.38;0.13;;;21.00;45.20;;;;;;4792315;29;20022;-76
2021/01/29 03:06:54;;;;;;;0.25;0.10;;;21.00;45.20;;;;;;4791512;29;20035;-75
2021/01/29 03:09:28;;;;;;;;;;;21.00;45.10;;;;;;4806446;29;20496;-75
2021/01/29 03:12:13;;;;;;;1.27;0.40;;;21.00;45.10;;;;;;4801484;29;20523;-75
2021/01/29 03:15:25;;;;;;;0.17;0.17;;;21.00;45.10;;;;;;4807009;29;20067;-74
2021/01/29 03:17:59;;;;;;;0.10;0.10;;;21.00;45.10;;;;;;4744426;30;20090;-75
2021/01/29 03:20:46;;;;;;;0.20;0.10;;;21.00;45.10;;;;;;4749646;30;20131;-76
2021/01/29 03:23:27;;;;;;;0.75;0.10;;;21.00;45.10;;;;;;4766454;30;20050;-76
2021/01/29 03:25:57;;;;;;;0.20;0.20;;;21.00;45.10;;;;;;4752609;30;20098;-76
2021/01/29 03:28:25;;;;;;;0.45;0.25;;;20.90;45.10;;;;;;4766663;30;20112;-75
2021/01/29 03:30:53;;;;;;;0.20;0.20;;;20.90;45.10;;;;;;4766030;30;20095;-75
2021/01/29 03:33:20;;;;;;;0.20;0.17;;;20.90;45.80;;;;;;4764521;30;20032;-74
2021/01/29 03:35:51;;;;;;;1.75;0.28;;;20.90;45.20;;;;;;4759262;30;20036;-74
2021/01/29 03:38:34;;;;;;;0.47;0.10;;;20.90;45.40;;;;;;4770638;30;20040;-74
2021/01/29 03:44:48;;;;;;;0.32;0.20;;;20.90;45.30;;;;;;4747090;30;20043;-74
2021/01/29 03:47:17;;;;;;;0.10;0.10;;;20.90;45.50;;;;;;4767979;30;20051;-75
2021/01/29 03:49:46;;;;;;;1.75;0.30;;;20.80;45.50;;;;;;4762442;30;20044;-74
2021/01/29 03:52:43;;;;;;;0.80;0.20;;;20.80;45.50;;;;;;4763506;30;20132;-73
2021/01/29 03:55:21;;;;;;;0.10;0.10;;;20.80;45.50;;;;;;4781439;29;20042;-75
2021/01/29 03:58:07;;;;;;;0.30;0.17;;;20.80;45.50;;;;;;4810442;29;20022;-74
2021/01/29 04:00:46;;;;;;;;;;;20.80;45.50;;;;;;4824622;29;20085;-74
2021/01/29 04:03:39;;;;;;;0.22;0.10;;;20.80;45.50;;;;;;4809720;29;19913;-74
2021/01/29 04:06:10;;;;;;;1.55;0.57;;;20.80;45.40;;;;;;4825077;29;20045;-74
2021/01/29 04:08:42;;;;;;;1.17;0.38;;;20.80;45.40;;;;;;4795388;29;20038;-74
2021/01/29 04:11:08;;;;;;;0.03;0.03;;;20.80;45.40;;;;;;4794692;29;20027;-74
2021/01/29 04:13:42;;;;;;;2.25;0.38;;;20.80;45.50;;;;;;4794876;29;20039;-74
2021/01/29 04:16:12;;;;;;;0.45;0.22;;;20.80;45.50;;;;;;4809691;29;20042;-74
2021/01/29 04:18:40;;;;;;;0.85;0.20;;;20.80;45.50;;;;;;4794619;29;20203;-74
2021/01/29 04:21:28;;;;;;;5.68;0.75;;;20.80;45.50;;;;;;4794529;29;20050;-74
2021/01/29 04:23:53;;;;;;;0.40;0.15;;;20.80;45.50;;;;;;4781111;29;20050;-75
2021/01/29 04:26:22;;;;;;;3.13;0.60;;;20.80;45.40;;;;;;4824590;29;20038;-75
2021/01/29 04:28:51;;;;;;;1.45;0.10;;;20.80;45.50;;;;;;4779691;29;20057;-74
2021/01/29 04:31:18;;;;;;;1.35;0.40;;;20.80;45.50;;;;;;4809802;29;20403;-75
2021/01/29 04:33:47;;;;;;;3.50;0.73;;;20.70;45.50;;;;;;4778599;29;20038;-75
2021/01/29 04:36:14;;;;;;;3.28;0.40;;;20.70;45.50;;;;;;4809176;29;20071;-75
2021/01/29 04:38:47;;;;;;;1.40;0.35;;;20.70;45.50;;;;;;4794149;29;20034;-75
2021/01/29 04:41:21;;;;;;;3.15;0.63;;;20.70;45.50;;;;;;4794481;29;20381;-75
2021/01/29 04:44:02;;;;;;;2.92;0.65;;;20.70;45.60;;;;;;4779191;29;20046;-75
2021/01/29 04:46:27;;;;;;;0.35;0.10;;;20.70;45.50;;;;;;4823521;29;20030;-75
2021/01/29 04:49:02;;;;;;;1.17;0.30;;;20.60;45.50;;;;;;4826807;29;20426;-74
2021/01/29 04:51:27;;;;;;;4.85;0.85;;;20.70;45.60;;;;;;4825233;29;20041;-75
2021/01/29 04:54:10;;;;;;;1.00;0.55;;;20.60;45.60;;;;;;4824461;29;20039;-74
2021/01/29 04:57:10;;;;;;;3.45;0.43;;;20.60;45.60;;;;;;4822472;29;20035;-75
2021/01/29 05:00:15;;;;;;;1.33;0.55;;;20.60;46.20;;;;;;4825324;29;20026;-75
2021/01/29 05:03:08;;;;;;;2.55;0.20;;;20.60;45.60;;;;;;4718576;30;20096;-75
2021/01/29 05:05:46;;;;;;;0.10;0.10;;;20.60;45.60;;;;;;4733628;30;20033;-75
2021/01/29 05:08:33;;;;;;;4.28;0.25;;;20.60;45.50;;;;;;4719194;30;20406;-75
2021/01/29 05:11:11;;;;;;;0.50;0.30;;;20.70;45.60;;;;;;4719152;30;20045;-75
2021/01/29 05:13:42;;;;;;;0.30;0.20;;;20.70;45.40;;;;;;4718726;30;20037;-74
2021/01/29 05:16:28;;;;;;;1.02;0.25;;;20.80;45.40;;;;;;4730608;30;20088;-75
2021/01/29 05:19:12;;;;;;;0.05;0.03;;;20.80;45.30;;;;;;4733786;30;20110;-73
2021/01/29 05:22:04;;;;;;;0.10;0.10;;;20.80;45.20;;;;;;4732808;30;20475;-74
2021/01/29 05:24:52;;;;;;;0.57;0.25;;;20.90;45.10;;;;;;4732957;30;20040;-75
2021/01/29 05:27:35;;;;;;;1.17;0.50;;;20.90;45.00;;;;;;4722543;30;20112;-75
2021/01/29 05:30:25;;;;;;;0.75;0.20;;;20.90;45.00;;;;;;4729094;30;20040;-75
2021/01/29 05:33:08;;;;;;;0.10;0.10;;;21.00;45.00;;;;;;4733018;30;20173;-75
2021/01/29 05:35:51;;;;;;;2.50;0.45;;;21.00;44.90;;;;;;4720237;30;20040;-75
2021/01/29 05:38:22;;;;;;;0.98;0.30;;;21.00;44.80;;;;;;4738556;29;20047;-75
2021/01/29 05:41:25;;;;;;;0.28;0.10;;;21.10;44.80;;;;;;4824174;29;20511;-74
2021/01/29 05:44:12;;;;;;;0.03;0.03;;;21.10;44.70;;;;;;4824069;29;20399;-74
2021/01/29 05:47:12;;;;;;;0.63;0.30;;;21.10;44.60;;;;;;4807854;29;20034;-74
2021/01/29 05:50:08;;;;;;;0.50;0.40;;;21.10;44.70;;;;;;4796294;29;20071;-74
2021/01/29 05:52:54;;;;;;;1.55;0.50;;;21.10;44.70;;;;;;4807705;29;20018;-74
2021/01/29 05:55:45;;;;;;;2.85;0.20;;;21.10;44.60;;;;;;4822842;29;20038;-74
2021/01/29 05:58:48;;;;;;;1.77;0.50;;;21.10;44.50;;;;;;4809852;29;20030;-75
2021/01/29 06:01:42;;;;;;;0.65;0.20;;;21.10;44.60;;;;;;4819654;29;20038;-74
2021/01/29 06:04:48;;;;;;;3.25;0.57;;;21.20;44.60;;;;;;4810046;29;20036;-74
2021/01/29 06:07:32;;;;;;;1.07;0.30;;;21.20;44.60;;;;;;4807747;29;20175;-74
2021/01/29 06:10:00;;;;;;;0.45;0.45;;;21.20;44.60;;;;;;4824803;29;20041;-73
2021/01/29 06:12:51;;;;;;;2.60;0.32;;;21.30;44.60;;;;;;4824416;29;20027;-75
2021/01/29 06:15:41;;;;;;;2.85;0.60;;;21.30;44.50;;;;;;4808019;29;20069;-75
2021/01/29 06:18:20;;;;;;;0.93;0.32;;;21.30;44.50;;;;;;4795845;29;20029;-74
2021/01/29 06:21:24;;;;;;;1.10;0.40;;;21.30;44.50;;;;;;4782684;29;20051;-74
2021/01/29 06:24:21;;;;;;;0.00;0.00;;;21.20;44.40;;;;;;4819366;29;20084;-73
2021/01/29 06:26:50;;;;;;;;;;;21.30;44.30;;;;;;4822136;29;20373;-74
2021/01/29 06:29:23;;;;;;;0.70;0.30;;;21.30;44.30;;;;;;4824175;29;19913;-74
2021/01/29 06:31:54;;;;;;;3.25;0.45;;;21.30;44.30;;;;;;4823819;29;20030;-75
2021/01/29 06:34:47;;;;;;;1.15;0.40;;;21.30;44.40;;;;;;4824204;29;20136;-75
2021/01/29 06:37:54;;;;;;;1.55;0.45;;;21.30;44.30;;;;;;4824017;29;20109;-75
2021/01/29 06:40:25;;;;;;;;;;;21.30;44.30;;;;;;4807490;29;20097;-75
2021/01/29 06:43:05;;;;;;;0.43;0.30;;;21.30;44.30;;;;;;4823915;29;19920;-75
2021/01/29 06:46:05;;;;;;;1.85;0.70;;;21.40;44.30;;;;;;4823698;29;20058;-73
2021/01/29 06:49:01;;;;;;;3.53;0.30;;;21.30;44.30;;;;;;4809285;29;20041;-74
2021/01/29 06:51:29;;;;;;;;;;;21.30;44.30;;;;;;4823791;29;20132;-74
2021/01/29 06:54:28;;;;;;;0.45;0.45;;;21.30;44.20;;;;;;4823348;29;19970;-75
2021/01/29 06:57:07;;;;;;;2.90;0.40;;;21.30;44.30;;;;;;4822891;29;20043;-74
2021/01/29 06:59:51;;;;;;;2.70;0.60;;;21.30;44.30;;;;;;4805497;29;20031;-74
2021/01/29 07:03:04;;;;;;;2.28;0.45;;;21.30;44.30;;;;;;4823630;29;20034;-75
2021/01/29 07:05:56;;;;;;;1.08;0.57;;;21.30;44.20;;;;;;4785906;29;20071;-75
2021/01/29 07:09:06;;;;;;;3.60;0.55;;;21.40;44.20;;;;;;4784288;29;20531;-75
2021/01/29 07:11:35;;;;;;;2.75;0.40;;;21.30;44.10;;;;;;4714086;30;20085;-74
2021/01/29 07:14:04;;;;;;;1.80;0.57;;;21.30;44.10;;;;;;4722088;30;20056;-73
2021/01/29 07:17:00;;;;;;;1.08;0.45;;;21.40;43.90;;;;;;4713987;30;20525;-74
2021/01/29 07:19:44;;;;;;;2.65;0.50;;;21.50;43.90;;;;;;4717568;30;20054;-73
2021/01/29 07:22:12;;;;;;;1.48;0.60;;;21.50;43.60;;;;;;4718248;30;20077;-73
2021/01/29 07:24:43;;;;;;;1.48;0.28;;;21.60;43.50;;;;;;4705117;30;20045;-73
2021/01/29 07:27:14;;;;;;;0.85;0.35;;;21.60;43.40;;;;;;4717023;30;20077;-74
2021/01/29 07:29:50;;;;;;;2.88;0.68;;;21.60;43.30;;;;;;4723106;30;20103;-74
2021/01/29 07:32:32;;;;;;;7.45;0.75;;;21.60;43.40;;;;;;4729573;30;20041;-74
2021/01/29 07:35:08;;;;;;;1.35;0.45;;;21.60;43.30;;;;;;4705360;30;20067;-74
2021/01/29 07:37:39;;;;;;;1.42;0.32;;;21.50;43.40;;;;;;4715932;30;20525;-74
2021/01/29 07:40:38;;;;;;;7.50;0.73;;;21.50;43.30;;;;;;4726264;30;20053;-74
2021/01/29 07:43:07;;;;;;;2.15;0.98;;;21.50;43.30;;;;;;4732516;30;20080;-74
2021/01/29 07:46:07;;;;;;;3.28;0.82;;;21.50;43.30;;;;;;4791711;29;20511;-74
2021/01/29 07:48:44;;;;;;;1.42;0.50;;;21.50;43.30;;;;;;4775435;30;20114;-70
2021/01/29 07:51:31;;;;;;;5.57;1.45;;;21.50;43.30;;;;;;4768991;30;20504;-71
2021/01/29 07:54:30;;;;;;;2.17;1.13;;;21.50;43.30;;;;;;4780651;30;20443;-79
2021/01/29 07:57:01;;;;;;;2.65;0.68;;;21.50;43.40;;;;;;4772035;29;20081;-77
2021/01/29 07:59:54;;;;;;;6.03;0.90;;;21.40;43.40;;;;;;4782060;30;20046;-80
2021/01/29 08:02:38;;;;;;;0.38;0.10;;;21.40;43.30;;;;;;4784354;30;20452;-81
2021/01/29 08:05:09;;;;;;;2.63;1.02;;;21.40;43.40;;;;;;4784434;30;20039;-76
2021/01/29 08:07:39;;;;;;;2.08;0.73;;;21.40;43.40;;;;;;4770504;30;20139;-73
2021/01/29 08:10:06;;;;;;;3.45;0.73;;;21.40;43.50;;;;;;4772243;30;20042;-74
2021/01/29 08:12:32;;;;;;;3.85;0.82;;;21.30;43.50;;;;;;4784100;29;20425;-73
2021/01/29 08:15:27;;;;;;;4.55;1.48;;;21.30;43.60;;;;;;4757047;30;20067;-72
2021/01/29 08:17:58;;;;;;;0.75;0.10;;;21.40;43.90;;;;;;4777158;29;20126;-76
2021/01/29 08:20:45;;;;;;;6.32;1.00;;;21.30;44.00;;;;;;4767661;29;20047;-78
2021/01/29 08:23:32;;;;;;;7.68;1.40;;;21.40;44.10;;;;;;4764868;30;20059;-71
2021/01/29 08:26:11;;;;;;;3.13;0.63;;;21.40;44.20;;;;;;4797360;29;20051;-74
2021/01/29 08:28:37;;;;;;;5.13;2.28;;;21.40;44.20;;;;;;4791134;29;20042;-72
2021/01/29 08:31:21;;;;;;;9.02;1.10;;;21.40;44.20;;;;;;4806842;29;20042;-71
2021/01/29 08:34:11;;;;;;;1.58;0.75;;;21.30;44.20;;;;;;4805867;29;20042;-75
2021/01/29 08:36:43;;;;;;;3.20;1.02;;;21.30;44.30;;;;;;4806308;29;20030;-72
2021/01/29 08:39:31;;;;;;;3.78;1.25;;;21.30;44.20;;;;;;4791229;29;20098;-75
2021/01/29 08:42:35;;;;;;;10.43;1.38;;;21.40;44.30;;;;;;4805689;29;20415;-72
2021/01/29 08:45:28;;;;;;;3.75;1.80;;;21.30;44.20;;;;;;4804123;29;20092;-70
2021/01/29 08:48:14;;;;;;;1.95;0.75;;;21.30;44.10;;;;;;4804856;29;20443;-74
2021/01/29 08:51:18;;;;;;;0.57;0.55;;;21.40;44.20;;;;;;4791235;29;20035;-74
2021/01/29 08:53:43;;;;;;;2.47;1.20;;;21.40;44.10;;;;;;4799365;29;20043;-74
2021/01/29 08:56:19;;;;;;;3.72;0.68;;;21.40;44.00;;;;;;4803045;29;20031;-73
2021/01/29 08:59:03;;;;;;;;;;;21.50;43.90;;;;;;4789080;29;20074;-73
2021/01/29 09:01:32;;;;;;;1.58;0.80;;;21.50;43.80;;;;;;4805825;29;19948;-73
2021/01/29 09:04:31;;;;;;;1.63;0.60;;;21.50;43.70;;;;;;4787740;29;20035;-73
2021/01/29 09:06:57;;;;;;;2.00;0.52;;;21.50;43.60;;;;;;4789751;29;20031;-73
2021/01/29 09:09:27;;;;;;;4.28;1.33;;;21.50;43.60;;;;;;4774599;29;20518;-73
2021/01/29 09:11:54;;;;;;;8.27;1.25;;;21.50;43.60;;;;;;4775586;29;20031;-74
2021/01/29 09:14:35;;;;;;;1.60;0.57;;;21.50;43.70;;;;;;4789822;29;20118;-74
2021/01/29 09:17:14;;;;;;;9.98;1.30;;;21.40;43.80;;;;;;4790342;29;20043;-73
2021/01/29 09:19:42;;;;;;;3.92;2.10;;;21.50;43.80;;;;;;4790278;29;20030;-71
2021/01/29 09:22:29;;;;;;;2.47;1.13;;;21.50;43.80;;;;;;4788123;29;20043;-73
2021/01/29 09:25:18;;;;;;;1.55;0.80;;;21.40;43.80;;;;;;4808959;29;20054;-71
2021/01/29 09:28:04;;;;;;;0.50;0.40;;;21.40;43.70;;;;;;4807848;29;20030;-71
2021/01/29 09:30:36;;;;;;;7.45;0.98;;;21.50;43.90;;;;;;4818458;29;20047;-70
2021/01/29 09:33:14;;;;;;;2.08;0.55;;;21.50;43.70;;;;;;4791727;29;20404;-71
2021/01/29 09:35:56;;;;;;;2.10;0.50;;;21.50;43.60;;;;;;4793706;29;20031;-71
2021/01/29 09:38:30;;;;;;;2.08;0.73;;;21.60;43.50;;;;;;4790635;29;20043;-71
2021/01/29 09:41:03;;;;;;;9.43;0.80;;;21.60;43.50;;;;;;4793948;29;20034;-71
2021/01/29 09:44:02;;;;;;;1.33;0.45;;;21.60;43.30;;;;;;4807112;29;20034;-72
2021/01/29 09:46:38;;;;;;;4.60;0.47;;;21.60;43.30;;;;;;4784118;30;20556;-73
2021/01/29 09:49:07;;;;;;;;;;;21.60;43.30;;;;;;4754899;30;20032;-72
2021/01/29 09:51:52;;;;;;;1.98;0.47;;;21.60;43.30;;;;;;4757864;30;19948;-71
2021/01/29 09:54:24;;;;;;;4.63;1.10;;;21.60;43.30;;;;;;4768253;30;20055;-73
2021/01/29 09:57:01;;;;;;;5.50;0.50;;;21.60;43.70;;;;;;4757977;30;20046;-73
2021/01/29 09:59:43;;;;;;;2.05;0.63;;;21.50;43.40;;;;;;4762163;30;20077;-72
2021/01/29 10:02:19;;;;;;;2.38;1.15;;;21.60;43.40;;;;;;4773673;30;20035;-74
2021/01/29 10:05:03;;;;;;;3.47;0.63;;;21.60;43.40;;;;;;4766147;30;20524;-73
2021/01/29 10:07:29;;;;;;;7.43;1.17;;;21.60;43.40;;;;;;4756972;30;20145;-72
2021/01/29 10:10:15;;;;;;;1.65;0.98;;;21.60;43.50;;;;;;4766849;30;20463;-72
2021/01/29 10:12:43;;;;;;;3.72;0.22;;;21.60;43.50;;;;;;4784854;30;20032;-72
2021/01/29 10:15:22;;;;;;;3.30;0.47;;;21.60;43.60;;;;;;4767674;30;20046;-72
2021/01/29 10:18:17;;;;;;;2.35;0.28;;;21.50;43.60;;;;;;4769906;30;20117;-72
2021/01/29 10:20:43;;;;;;;1.35;0.32;;;21.50;43.70;;;;;;4754607;30;20520;-73
2021/01/29 10:23:22;;;;;;;1.05;0.30;;;21.60;43.70;;;;;;4792578;29;20100;-72
2021/01/29 10:26:10;;;;;;;6.20;1.38;;;21.50;43.60;;;;;;4816136;29;20061;-70
2021/01/29 10:28:51;;;;;;;2.92;0.52;;;21.60;43.60;;;;;;4806426;29;20156;-72
2021/01/29 10:31:17;;;;;;;2.40;0.70;;;21.50;43.80;;;;;;4819172;29;20070;-72
2021/01/29 10:33:47;;;;;;;1.08;0.65;;;21.50;43.80;;;;;;4809181;29;20457;-71
2021/01/29 10:36:21;;;;;;;2.58;0.63;;;21.50;43.70;;;;;;4792594;29;20023;-71
2021/01/29 10:39:10;;;;;;;4.13;1.00;;;21.50;43.80;;;;;;4792338;29;20027;-71
2021/01/29 10:41:46;;;;;;;1.27;0.47;;;21.40;43.90;;;;;;4798564;29;20086;-73
2021/01/29 10:44:26;;;;;;;3.17;1.10;;;21.40;44.00;;;;;;4807762;29;20407;-73
2021/01/29 10:47:09;;;;;;;3.22;0.80;;;21.40;43.90;;;;;;4803766;29;20042;-73
2021/01/29 10:50:24;;;;;;;0.47;0.40;;;21.40;44.00;;;;;;4789968;29;20070;-73
2021/01/29 10:53:18;;;;;;;3.45;1.08;;;21.40;44.10;;;;;;4817798;29;20038;-73
2021/01/29 10:56:00;;;;;;;4.10;0.60;;;21.30;44.00;;;;;;4809064;29;20114;-71
2021/01/29 10:58:50;;;;;;;7.50;0.80;;;21.40;44.00;;;;;;4816027;29;20031;-74
2021/01/29 11:01:38;;;;;;;3.40;1.08;;;21.40;44.00;;;;;;4815617;29;20036;-75
2021/01/29 11:04:09;;;;;;;3.47;1.00;;;21.40;44.10;;;;;;4815938;29;20018;-74
2021/01/29 11:06:47;;;;;;;5.43;0.90;;;21.30;44.10;;;;;;4813739;29;20062;-74
2021/01/29 11:09:35;;;;;;;2.58;0.85;;;21.40;44.20;;;;;;4791089;29;20110;-74
2021/01/29 11:12:22;;;;;;;3.72;1.10;;;21.40;44.20;;;;;;4794511;29;20449;-71
2021/01/29 11:15:28;;;;;;;9.52;0.73;;;21.40;44.50;;;;;;4805742;29;20083;-71
2021/01/29 11:18:27;;;;;;;4.00;1.73;;;21.30;44.30;;;;;;4807318;29;20114;-71
2021/01/29 11:21:17;;;;;;;6.82;0.93;;;21.40;44.40;;;;;;4825492;29;20322;-71
2021/01/29 11:24:03;;;;;;;1.17;0.35;;;21.40;44.20;;;;;;4806922;29;20054;-71
2021/01/29 11:26:38;;;;;;;3.92;0.77;;;21.40;44.20;;;;;;4822598;29;20034;-76
2021/01/29 11:29:15;;;;;;;1.97;0.70;;;21.40;44.10;;;;;;4792148;29;20726;-76
2021/01/29 11:32:14;;;;;;;4.53;1.00;;;21.40;44.00;;;;;;4807444;29;20042;-76
2021/01/29 11:34:39;;;;;;;2.83;1.00;;;21.40;44.20;;;;;;4800501;29;20078;-74
2021/01/29 11:37:37;;;;;;;2.30;0.52;;;21.40;44.20;;;;;;4806656;29;20062;-76
2021/01/29 11:40:32;;;;;;;11.63;1.23;;;21.40;44.20;;;;;;4786763;29;20065;-76
2021/01/29 11:43:06;;;;;;;2.90;0.90;;;21.40;44.20;;;;;;4734223;29;20056;-76
2021/01/29 11:45:34;;;;;;;6.70;0.65;;;21.40;44.20;;;;;;4739219;30;20068;-75
2021/01/29 11:48:24;;;;;;;4.30;1.10;;;21.40;44.10;;;;;;4719869;30;20047;-71
2021/01/29 11:50:55;;;;;;;1.27;0.50;;;21.40;44.10;;;;;;4749129;30;20537;-71
2021/01/29 11:53:31;;;;;;;5.85;0.80;;;21.50;44.00;;;;;;4747919;30;20126;-72
2021/01/29 11:56:09;;;;;;;2.38;0.73;;;21.50;43.90;;;;;;4732424;30;20076;-71
2021/01/29 11:58:48;;;;;;;4.97;0.90;;;21.60;43.80;;;;;;4735543;30;20055;-72
2021/01/29 12:01:55;;;;;;;6.07;0.40;;;21.60;43.60;;;;;;4736784;30;20123;-72
2021/01/29 12:04:48;;;;;;;2.83;0.95;;;21.60;43.50;;;;;;4671399;30;20152;-71
2021/01/29 12:07:20;;;;;;;3.90;1.08;;;21.70;43.40;;;;;;4676383;30;20038;-71
2021/01/29 12:10:07;;;;;;;2.03;0.65;;;21.70;43.30;;;;;;4675068;30;20178;-72
2021/01/29 12:12:57;;;;;;;2.75;1.08;;;21.60;43.40;;;;;;4669473;30;20058;-71
2021/01/29 12:15:27;;;;;;;3.40;1.17;;;21.60;43.40;;;;;;4665887;30;20445;-72
2021/01/29 12:17:55;;;;;;;4.82;1.05;;;21.70;43.40;;;;;;4682056;30;20490;-72
2021/01/29 12:20:24;;;;;;;4.43;0.88;;;21.60;43.40;;;;;;4696703;30;20136;-71
2021/01/29 12:23:00;;;;;;;5.28;0.95;;;21.70;43.30;;;;;;4702606;30;20037;-71
2021/01/29 12:25:25;;;;;;;;;;;21.70;43.30;;;;;;4702156;30;20174;-71
2021/01/29 12:28:18;;;;;;;2.95;0.82;;;21.70;43.30;;;;;;4719681;30;19963;-71
2021/01/29 12:31:08;;;;;;;3.60;0.50;;;21.70;43.30;;;;;;4715307;30;20051;-70
2021/01/29 12:33:50;;;;;;;5.20;1.05;;;21.60;43.30;;;;;;4703485;30;20549;-70
2021/01/29 12:36:17;;;;;;;9.98;1.30;;;21.60;43.30;;;;;;4701650;30;20181;-70
2021/01/29 12:38:49;;;;;;;1.92;0.30;;;21.60;43.30;;;;;;4692480;29;20120;-71
2021/01/29 12:41:27;;;;;;;1.70;0.85;;;21.60;43.40;;;;;;4805786;29;20042;-70
2021/01/29 12:44:07;;;;;;;1.95;0.43;;;21.60;43.40;;;;;;4794683;29;20029;-71
2021/01/29 12:46:37;;;;;;;6.22;0.75;;;21.60;43.20;;;;;;4823295;29;20057;-71
2021/01/29 12:49:31;;;;;;;2.42;0.93;;;21.60;43.20;;;;;;4794126;29;20117;-70
2021/01/29 12:52:34;;;;;;;5.20;0.85;;;21.60;43.20;;;;;;4825018;29;20067;-70
2021/01/29 12:55:19;;;;;;;1.63;0.70;;;21.60;43.10;;;;;;4735791;30;20311;-70
2021/01/29 12:57:56;;;;;;;1.92;0.50;;;21.60;43.10;;;;;;4751091;30;20144;-70
2021/01/29 13:00:28;;;;;;;3.67;0.82;;;21.50;43.10;;;;;;4737822;30;20063;-70
2021/01/29 13:03:06;;;;;;;0.30;0.22;;;21.60;43.10;;;;;;4741270;30;20583;-71
2021/01/29 13:05:48;;;;;;;0.50;0.30;;;21.60;43.20;;;;;;4758002;30;20044;-71
2021/01/29 13:08:50;;;;;;;1.17;0.65;;;21.60;43.10;;;;;;4746295;30;20438;-71
2021/01/29 13:11:19;;;;;;;2.13;0.38;;;21.60;43.30;;;;;;4756164;30;20553;-71
2021/01/29 13:14:12;;;;;;;0.73;0.50;;;21.60;43.30;;;;;;4739048;30;20032;-71
2021/01/29 13:17:00;;;;;;;4.03;1.00;;;21.50;43.30;;;;;;4769497;30;20046;-71
2021/01/29 13:19:27;;;;;;;1.63;0.52;;;21.50;43.30;;;;;;4747498;30;20521;-72
2021/01/29 13:21:54;;;;;;;0.90;0.60;;;21.50;43.30;;;;;;4751067;30;20098;-71
2021/01/29 13:24:31;;;;;;;1.50;0.68;;;21.50;43.40;;;;;;4750921;30;20047;-72
2021/01/29 13:27:07;;;;;;;2.47;0.50;;;21.40;43.40;;;;;;4721632;30;20052;-73
2021/01/29 13:29:33;;;;;;;2.60;0.52;;;21.40;43.40;;;;;;4739383;29;20036;-73
2021/01/29 13:32:21;;;;;;;1.98;0.75;;;21.40;43.50;;;;;;4792549;29;20043;-71
2021/01/29 13:34:47;;;;;;;1.70;0.40;;;21.40;43.60;;;;;;4824538;29;20033;-71
2021/01/29 13:37:25;;;;;;;4.80;0.63;;;21.40;43.40;;;;;;4807919;29;20387;-71
2021/01/29 13:40:01;;;;;;;3.72;0.93;;;21.50;43.50;;;;;;4808944;29;20022;-72
2021/01/29 13:42:29;;;;;;;2.72;0.50;;;21.50;43.40;;;;;;4794651;29;20023;-72
2021/01/29 13:45:09;;;;;;;1.52;0.65;;;21.50;43.30;;;;;;4778490;29;20038;-72
2021/01/29 13:47:42;;;;;;;0.60;0.50;;;21.60;43.40;;;;;;4796740;29;20133;-72
2021/01/29 13:50:28;;;;;;;0.47;0.30;;;21.60;43.30;;;;;;4823240;29;20023;-72
2021/01/29 13:52:56;;;;;;;1.50;0.32;;;21.60;43.30;;;;;;4823241;29;20034;-72
2021/01/29 13:55:40;;;;;;;1.63;0.60;;;21.60;43.20;;;;;;4792188;29;20456;-72